Greenville, Virginia
Current Conditions -  °F | °C
As of 3:55 PM on Thursday 23 Oct 2014 (Local Time) from KW13 Reporting Station
Clear Clear  
Wind Chill: 61°   Ceiling: Unl
Heat Index: 61°   Visibility: 10mi
Dew Point: 41°   Wind: 12mph
Humidity: 47%   Direction: 310°NW
Pressure: 29.95"   Gusts: 17mph
Location:  38°N, 79.16°W
Report Text: KW13 231955Z AUTO 31010G15KT 10SM CLR 16/05 A2995 RMK AO1 T01630049
Loading
Personal Weather Stations






























Interactive Weather Map New forecast layout! Learn more

10-Day Weather Forecast

Advertisements
Track Severe Weather on mobile